AirNav   Free SoundLink Mini II speaker
 
 802 users online  

DC04 Spirit of Washington Heliport
Washington, District of Columbia, USA

GOING TO WASHINGTON?


FAA INFORMATION EFFECTIVE 26 MARCH 2020

Location

FAA Identifier: DC04
Lat/Long: 38-52-27.4040N 077-01-16.9150W
38-52.456733N 077-01.281917W
38.8742789,-77.0213653
(estimated)
Elevation: 15 ft. / 5 m (estimated)
Variation: 09W (1985)
Time zone: UTC -4 (UTC -5 during Standard Time)
Zip code: 20024

Heliport Operations

Heliport use: Private use. Permission required prior to landing
Activation date: 10/1970
Control tower: no
ARTCC: WASHINGTON CENTER
FSS: LEESBURG FLIGHT SERVICE STATION
Attendance: UNATNDD
Wind indicator: no
Segmented circle: no

Heliport Communications

WX ASOS at DCA (1.6 nm SW): 132.65 (703-412-8140)
WX AWOS-3 at CGS (8 nm NE): 121.225 (301-864-5497)
WX AWOS-3 at FME (18 nm NE): 123.925
WX AWOS-3PT at GAI (19 nm N): 128.275 (301-977-2971)

Nearby radio navigation aids

VOR radial/distance  VOR name  Freq  Var
DCAr047/1.1WASHINGTON VOR/DME111.0009W
ADWr309/8.3ANDREWS VORTAC113.1010W
OTTr318/16.4NOTTINGHAM VORTAC113.7010W
AMLr108/21.1ARMEL VOR/DME113.5008W
BALr234/24.5BALTIMORE VORTAC115.1011W
BRVr035/35.8BROOKE VORTAC114.5009W
FDKr161/(36.2)FREDERICK VOR109.0008W
EMIr191/37.3WESTMINSTER VORTAC117.9008W

 
NDB name  Hdg/Dist  Freq  Var  ID
GEORGETOWN134/5.832309WGTN --. - -.
OXONN013/6.533211WDCA -.. -.-. .-
DAVEE027/13.422309WDAA -.. .- .-
ELLICOTT216/27.337111WFND ..-. -. -..

Heliport Services

Airframe service: NONE
Powerplant service: NONE

Runway Information

Helipad H1

Dimensions: 300 x 60 ft. / 91 x 18 m
Surface: asphalt
Latitude: 38-52.456733N
Longitude: 077-01.281917W
Elevation: 15.0 ft.
Traffic pattern: leftleft

Heliport Ownership and Management from official FAA records

Ownership: Privately-owned
Owner: SPIRIT OF WASHINGTON
PIER 4 6TH & WATER STS, SW
WASHINGTON, DC 20024
Phone 202-484-2320
AND A16 - EXTENSION 646.
Manager: BILL FIRTH
PIER 4 6TH ST SW WATER ST
WASHINGTON, DC 20024
Phone 202-484-2320

Additional Remarks

SPIRIT OF BOSTON ASSOCIATION.
FOR CD CTC POTOMAC APCH AT 866-599-3874.

Instrument Procedures

There are no published instrument procedures at DC04.

Some nearby airports with instrument procedures:

KDCA - Ronald Reagan Washington National Airport (2 nm SW)
KCGS - College Park Airport (8 nm NE)
KVKX - Potomac Airfield (8 nm S)
KADW - Joint Base Andrews (8 nm SE)
W32 - Washington Executive Airport/Hyde Field (9 nm SE)
KDAA - Davison Army Airfield (12 nm SW)
W00 - Freeway Airport (12 nm E)
2W5 - Maryland Airport (17 nm S)
KFME - Tipton Airport (18 nm NE)
KGAI - Montgomery County Airpark (19 nm N)
 
Loc | Ops | Rwys | IFR | FBO | Links
Com | Nav | Svcs | Stats | Notes
Area around DC04 (Spirit of Washington Heliport)
 
Road maps at: MapQuest Bing Google
 
Aerial photo
No photo
 
Sectional chart

 
Airport distance calculator
Flying to Spirit of Washington Heliport? Find the distance to fly.

From to DC04

Sunrise and sunset
Times for 01-Apr-2020
 Local
(UTC-4)
 Zulu
(UTC)
Morning civil twilight06:2510:25
Sunrise06:5210:52
Sunset19:3123:31
Evening civil twilight19:5823:58

Current date and time
Zulu (UTC)  02-Apr-2020 00:18:10
Local (UTC-4)  01-Apr-2020 20:18:10
 
METAR
KDCA 
2nm S 
012352Z 31005KT 10SM BKN055 BKN070 BKN090 12/04 A2982 RMK AO2 SLP099 T01220039 10139 20106 53007
KCGS 
8nm NE 
020006Z AUTO 00000KT 10SM OVC090 11/02 A2982 RMK AO1 T01070019
KADW 
8nm SE 
012356Z AUTO 00000KT 10SM BKN049 OVC060 11/03 A2981 RMK AO2 DZB35E50 SLP102 P0000 60000 T01090034 10129 20088 52008 $
KDAA 
12nm SW 
012356Z AUTO 28003KT 10SM BKN049 OVC060 13/03 A2982 RMK AO2 SLP101 T01250034 10140 20097 53006 $
KFME 
17nm NE 
012345Z AUTO 00000KT 10SM SCT050 OVC085 10/04 A2983 RMK AO1
KGAI 
19nm N 
012356Z AUTO 00000KT 10SM FEW070 OVC090 10/04 A2983 RMK AO2 SLP116 T01000044 10128 20094 53008
TAF
KDCA 
2nm S 
012055Z 0121/0224 32005KT P6SM BKN040 BKN060 FM020600 32010KT P6SM FEW150 FM021400 33014G22KT P6SM FEW200
KADW 
8nm SE 
011704Z 0117/0223 35010G20KT 9999 SCT030 BKN035 OVC045 620402 QNH2979INS BECMG 0121/0122 33010G18KT 9999 SCT030 BKN075 620802 QNH2979INS BECMG 0200/0201 31005KT 9999 BKN035 OVC045 620403 510003 QNH2982INS BECMG 0203/0204 30005KT 9999 SCT030 510001 QNH2983INS BECMG 0204/0205 34008KT 9999 SKC 510001 QNH2988INS BECMG 0211/0212 30010G25KT 9999 FEW075 QNH2987INS BECMG 0216/0217 32015G30KT 9999 SCT055 BKN060 QNH2982INS TX12/0121Z TN03/0210Z
KDAA 
12nm SW 
011925Z 0119/0223 31012KT 9999 FEW030 BKN050 QNH2979INS BECMG 0123/0124 32009KT 9999 FEW030 SCT050 QNH2981INS BECMG 0214/0215 31015G20KT 9999 FEW050 QNH2984INS TEMPO 0215/0220 33020G35KT 510003 BECMG 0222/0223 32012KT 9999 BKN050 QNH2985INS TX11/0121Z TN03/0211Z
NOTAMs
Click for the latest NOTAMs
NOTAMs are issued by the DoD/FAA and will open in a separate window not controlled by AirNav.

 

 
 

Would you like to see your business listed on this page?

 If your business provides an interesting product or service to pilots, flight crews, aircraft, or users of the Spirit of Washington Heliport, you should consider listing it here.  To start the listing process, click on the button below
 
Add a business
 

Other Pages about Spirit of Washington Heliport

Update a link
 
Copyright © AirNav, LLC. All rights reserved. Privacy Policy  Contact